Time;durP1;ratioP1;P1;durP2;ratioP2;P2;SDS_P1;SDS_P2;PMS_P1;PMS_P2;Temp;Humidity;BMP_temperature;BMP_pressure;BME280_temperature;BME280_humidity;BME280_pressure;Samples;Min_cycle;Max_cycle;Signal;HPM_P1;HPM_P2
2021/03/04 00:01:21;;;;;;;30.27;20.40;;;;;;;0.94;84.43;97451.59;5049695;28;20129;-70
2021/03/04 00:03:48;;;;;;;29.50;17.48;;;;;;;0.80;85.52;97455.81;5042172;28;20052;-70
2021/03/04 00:06:14;;;;;;;28.38;16.52;;;;;;;0.93;84.75;97437.13;5060731;28;20145;-70
2021/03/04 00:08:40;;;;;;;35.38;21.30;;;;;;;0.92;85.10;97431.19;5065342;28;20460;-70
2021/03/04 00:11:06;;;;;;;25.27;17.60;;;;;;;0.87;84.83;97440.91;5047763;28;20052;-70
2021/03/04 00:13:33;;;;;;;29.98;19.92;;;;;;;0.91;83.36;97434.69;5061128;28;20045;-70
2021/03/04 00:15:58;;;;;;;25.90;15.88;;;;;;;1.01;84.34;97433.19;5047361;28;20048;-70
2021/03/04 00:18:25;;;;;;;27.83;17.95;;;;;;;1.12;83.78;97439.44;5057835;28;20056;-70
2021/03/04 00:20:52;;;;;;;26.90;16.33;;;;;;;0.90;83.49;97440.69;5068796;28;20099;-69
2021/03/04 00:23:18;;;;;;;29.70;19.30;;;;;;;0.97;83.84;97426.63;5043709;28;20051;-70
2021/03/04 00:25:44;;;;;;;29.17;18.48;;;;;;;0.99;83.86;97424.75;5047098;28;20044;-70
2021/03/04 00:28:12;;;;;;;28.45;19.27;;;;;;;0.77;84.03;97417.53;5061271;28;20060;-70
2021/03/04 00:30:38;;;;;;;32.00;18.65;;;;;;;0.96;83.68;97419.00;5048119;28;20063;-70
2021/03/04 00:33:04;;;;;;;29.52;17.52;;;;;;;0.77;83.58;97414.16;5058984;28;20045;-71
2021/03/04 00:35:30;;;;;;;26.55;18.88;;;;;;;0.82;83.93;97402.69;5045641;28;20143;-70
2021/03/04 00:37:56;;;;;;;28.60;18.27;;;;;;;0.81;84.24;97411.31;5046698;28;20059;-70
2021/03/04 00:40:23;;;;;;;30.15;17.75;;;;;;;0.86;83.58;97405.09;5062469;28;20047;-70
2021/03/04 00:42:49;;;;;;;24.88;16.40;;;;;;;0.67;83.58;97402.78;5041492;28;20682;-70
2021/03/04 00:45:17;;;;;;;26.58;16.95;;;;;;;0.58;84.58;97388.75;5028328;28;20044;-71
2021/03/04 00:48:04;;;;;;;26.23;18.30;;;;;;;0.67;84.96;97407.91;5054763;28;20041;-70
2021/03/04 00:50:30;;;;;;;26.25;16.55;;;;;;;0.53;84.71;97398.44;5063885;28;20048;-70
2021/03/04 00:52:57;;;;;;;30.80;17.48;;;;;;;0.63;84.84;97407.25;5042505;28;20115;-70
2021/03/04 00:55:23;;;;;;;27.42;19.20;;;;;;;0.78;84.64;97408.94;5062235;28;20128;-70
2021/03/04 00:57:51;;;;;;;34.10;20.42;;;;;;;0.77;83.82;97396.19;5059746;28;20058;-70
2021/03/04 01:00:19;;;;;;;23.38;15.75;;;;;;;0.64;84.27;97398.66;5043623;28;20044;-70
2021/03/04 01:02:45;;;;;;;34.50;19.92;;;;;;;0.87;84.48;97387.06;5059589;28;20036;-70
2021/03/04 01:05:11;;;;;;;29.73;19.08;;;;;;;0.99;83.83;97394.00;5058522;28;20385;-70
2021/03/04 01:07:37;;;;;;;29.48;16.83;;;;;;;0.92;82.58;97376.53;5044944;28;20037;-70
2021/03/04 01:10:10;;;;;;;28.42;19.83;;;;;;;0.88;83.83;97380.19;5046000;28;20476;-70
2021/03/04 01:12:36;;;;;;;27.83;16.77;;;;;;;0.90;83.71;97374.03;5041742;28;20630;-70
2021/03/04 01:15:10;;;;;;;26.52;17.90;;;;;;;0.92;83.57;97381.66;5056334;28;20412;-70
2021/03/04 01:17:36;;;;;;;24.00;16.98;;;;;;;0.87;82.96;97369.13;5043528;28;20033;-71
2021/03/04 01:20:11;;;;;;;26.05;16.63;;;;;;;0.90;84.05;97374.03;5059381;28;20044;-70
2021/03/04 01:22:37;;;;;;;22.92;15.30;;;;;;;0.80;83.49;97365.25;5063638;28;20491;-72
2021/03/04 01:25:05;;;;;;;23.38;14.27;;;;;;;0.67;83.62;97351.53;5044400;28;20473;-70
2021/03/04 01:27:31;;;;;;;;;;;;;;;0.71;83.60;97361.50;5064118;28;20053;-71
2021/03/04 01:29:57;;;;;;;24.83;16.52;;;;;;;0.80;84.04;97355.84;5043632;28;19960;-70
2021/03/04 01:32:23;;;;;;;27.17;17.55;;;;;;;0.75;84.02;97362.97;5056730;28;20037;-70
2021/03/04 01:34:50;;;;;;;28.33;18.55;;;;;;;0.66;84.44;97355.81;5059208;28;20076;-72
2021/03/04 01:37:16;;;;;;;33.53;22.08;;;;;;;0.78;84.53;97351.69;5061085;28;20051;-70
2021/03/04 01:39:42;;;;;;;27.35;17.67;;;;;;;1.06;83.84;97345.75;5059125;28;20088;-70
2021/03/04 01:42:08;;;;;;;26.85;17.45;;;;;;;0.86;83.49;97329.00;5056842;28;20036;-69
2021/03/04 01:44:34;;;;;;;26.88;18.27;;;;;;;0.77;84.65;97322.69;5060657;28;20044;-71
2021/03/04 01:47:02;;;;;;;28.40;16.83;;;;;;;1.17;83.00;97324.59;5038278;28;20047;-71
2021/03/04 01:49:29;;;;;;;23.65;16.65;;;;;;;0.92;84.07;97325.25;5060029;28;20146;-70
2021/03/04 01:51:55;;;;;;;27.65;17.85;;;;;;;1.08;83.25;97318.28;5058097;28;20590;-70
2021/03/04 01:54:21;;;;;;;29.38;18.65;;;;;;;0.78;84.49;97314.09;5055316;28;20500;-70
2021/03/04 01:56:49;;;;;;;25.77;16.60;;;;;;;0.73;83.69;97305.03;5058674;28;20388;-71
2021/03/04 01:59:16;;;;;;;26.85;18.70;;;;;;;0.78;83.97;97308.97;5056024;28;20044;-70
2021/03/04 02:02:07;;;;;;;29.98;19.38;;;;;;;0.84;84.05;97302.63;5043850;28;20041;-70
2021/03/04 02:04:33;;;;;;;29.30;16.67;;;;;;;1.12;84.18;97296.69;5038430;28;20133;-71
2021/03/04 02:07:15;;;;;;;26.42;18.38;;;;;;;1.08;83.89;97294.38;5042404;28;20048;-70
2021/03/04 02:09:49;;;;;;;24.63;17.08;;;;;;;1.22;82.94;97286.66;5061466;28;20546;-70
2021/03/04 02:12:32;;;;;;;23.90;16.73;;;;;;;1.08;83.24;97273.84;5048809;28;20044;-71
2021/03/04 02:15:17;;;;;;;28.45;18.75;;;;;;;0.85;83.89;97283.78;5061105;28;20045;-70
2021/03/04 02:17:48;;;;;;;26.05;15.70;;;;;;;0.91;83.98;97282.56;5040340;28;20048;-70
2021/03/04 02:20:28;;;;;;;22.92;16.05;;;;;;;1.13;83.75;97277.78;5062904;28;20459;-71
2021/03/04 02:23:08;;;;;;;28.45;16.63;;;;;;;1.28;84.03;97282.91;5060387;28;20548;-70
2021/03/04 02:25:43;;;;;;;23.38;14.80;;;;;;;1.34;83.01;97275.63;5061126;28;20124;-71
2021/03/04 02:28:11;;;;;;;24.35;15.35;;;;;;;1.51;82.37;97276.31;5065568;28;20041;-71
2021/03/04 02:30:40;;;;;;;26.23;15.43;;;;;;;1.36;82.52;97266.09;5059964;28;20447;-70
2021/03/04 02:33:25;;;;;;;24.58;16.00;;;;;;;1.27;83.14;97269.25;5057273;28;20640;-70
2021/03/04 02:35:54;;;;;;;25.08;15.25;;;;;;;1.22;82.71;97266.13;5051016;28;20671;-70
2021/03/04 02:38:21;;;;;;;21.90;14.00;;;;;;;1.49;82.17;97273.03;5043684;28;20049;-70
2021/03/04 02:40:49;;;;;;;24.80;16.17;;;;;;;1.42;82.07;97267.47;5059927;28;20671;-70
2021/03/04 02:43:19;;;;;;;25.52;15.88;;;;;;;1.40;82.80;97270.13;5059879;28;20129;-70
2021/03/04 02:45:46;;;;;;;26.30;15.75;;;;;;;1.52;82.51;97272.81;5062060;28;20056;-71
2021/03/04 02:48:17;;;;;;;20.90;14.65;;;;;;;1.60;82.31;97265.47;5062164;28;20056;-70
2021/03/04 02:50:46;;;;;;;26.17;14.88;;;;;;;1.68;81.91;97268.38;5045946;28;20532;-70
2021/03/04 02:53:13;;;;;;;29.17;15.00;;;;;;;1.50;82.64;97256.69;5061502;28;20562;-72
2021/03/04 02:55:40;;;;;;;30.38;19.08;;;;;;;1.49;82.83;97247.38;5058562;28;20045;-71
2021/03/04 02:58:08;;;;;;;26.00;17.35;;;;;;;1.45;83.46;97251.06;5047105;28;20045;-71
2021/03/04 03:00:36;;;;;;;25.40;16.95;;;;;;;1.47;83.38;97254.34;5044953;28;20037;-72
2021/03/04 03:03:05;;;;;;;;;;;;;;;1.43;84.09;97251.13;5060821;28;20392;-71
2021/03/04 03:05:34;;;;;;;29.83;18.88;;;;;;;1.37;84.24;97248.97;5061626;28;20033;-70
2021/03/04 03:08:01;;;;;;;28.77;18.02;;;;;;;1.52;83.77;97249.72;5038592;28;20048;-70
2021/03/04 03:10:29;;;;;;;25.65;15.40;;;;;;;1.37;84.12;97242.06;5045581;28;20059;-70
2021/03/04 03:12:57;;;;;;;29.73;18.88;;;;;;;1.35;84.10;97246.47;5058700;28;20037;-70
2021/03/04 03:15:25;;;;;;;31.15;18.65;;;;;;;1.36;84.62;97242.19;5059537;28;20135;-70
2021/03/04 03:17:53;;;;;;;29.75;19.02;;;;;;;1.49;84.00;97230.22;5044557;28;20053;-70
2021/03/04 03:20:21;;;;;;;32.08;19.73;;;;;;;1.46;83.79;97227.88;5063285;28;20121;-70
2021/03/04 03:22:48;;;;;;;23.80;15.18;;;;;;;1.47;83.89;97228.69;5061267;28;20383;-70
2021/03/04 03:25:15;;;;;;;;;;;;;;;1.36;84.50;97235.31;5049892;28;20147;-70
2021/03/04 03:27:42;;;;;;;29.63;18.00;;;;;;;1.41;84.51;97230.69;5045297;28;19920;-72
2021/03/04 03:30:11;;;;;;;22.70;13.93;;;;;;;1.55;82.83;97206.75;5044302;28;20063;-71
2021/03/04 03:32:45;;;;;;;20.25;13.25;;;;;;;1.76;82.29;97222.50;5043345;28;20056;-70
2021/03/04 03:35:15;;;;;;;25.95;16.48;;;;;;;1.56;83.38;97218.63;5058859;28;20048;-70
2021/03/04 03:37:42;;;;;;;22.02;15.40;;;;;;;1.43;83.63;97220.34;5028581;28;20369;-70
2021/03/04 03:40:09;;;;;;;25.88;16.17;;;;;;;1.52;83.52;97231.75;5055570;28;20136;-70
2021/03/04 03:42:36;;;;;;;;;;;;;;;1.53;83.26;97233.44;5043098;28;20055;-70
2021/03/04 03:45:13;;;;;;;20.38;12.68;;;;;;;1.61;82.64;97223.50;5028766;28;19925;-70
2021/03/04 03:47:40;;;;;;;17.42;12.52;;;;;;;1.61;82.71;97228.63;5042461;28;20041;-71
2021/03/04 03:50:20;;;;;;;18.45;11.43;;;;;;;1.69;82.46;97223.78;5045757;28;20484;-70
2021/03/04 03:52:47;;;;;;;17.40;11.90;;;;;;;1.71;81.80;97237.34;5061099;28;20042;-70
2021/03/04 03:55:15;;;;;;;18.30;12.43;;;;;;;1.69;82.37;97233.25;5059992;28;20045;-70
2021/03/04 03:57:42;;;;;;;;;;;;;;;1.92;81.55;97240.25;5059530;28;20067;-70
2021/03/04 04:00:09;;;;;;;17.92;11.38;;;;;;;1.81;81.16;97235.84;5061883;28;19975;-70
2021/03/04 04:02:36;;;;;;;16.08;10.43;;;;;;;1.92;80.76;97234.31;5057765;28;20048;-70
2021/03/04 04:05:03;;;;;;;13.80;9.40;;;;;;;2.14;79.20;97226.84;5050917;28;20051;-71
2021/03/04 04:07:30;;;;;;;15.85;8.30;;;;;;;2.30;76.70;97224.06;5047796;28;20059;-70
2021/03/04 04:09:58;;;;;;;12.40;7.88;;;;;;;2.59;74.65;97234.94;5056713;28;20071;-70
2021/03/04 04:12:24;;;;;;;18.48;8.77;;;;;;;2.44;75.87;97225.69;5046549;28;20040;-71
2021/03/04 04:14:51;;;;;;;13.13;7.18;;;;;;;2.88;73.27;97216.69;5061939;28;20115;-70
2021/03/04 04:17:22;;;;;;;11.80;6.90;;;;;;;3.07;70.58;97223.94;5029532;28;20056;-70
2021/03/04 04:19:49;;;;;;;22.48;6.90;;;;;;;2.96;70.98;97211.78;5059767;28;20492;-70
2021/03/04 04:22:17;;;;;;;13.68;6.85;;;;;;;3.08;72.41;97227.31;5040348;28;20048;-70
2021/03/04 04:24:43;;;;;;;17.33;8.98;;;;;;;2.71;76.24;97222.16;5044835;28;20048;-70
2021/03/04 04:27:11;;;;;;;14.60;9.10;;;;;;;2.56;77.68;97229.16;5038520;28;20785;-70
2021/03/04 04:29:39;;;;;;;16.02;9.68;;;;;;;2.30;78.49;97230.94;5041932;28;20049;-70
2021/03/04 04:32:06;;;;;;;20.00;10.40;;;;;;;2.09;79.23;97220.34;5062494;28;20063;-70
2021/03/04 04:34:33;;;;;;;19.52;9.48;;;;;;;2.36;78.03;97223.63;5060929;28;20661;-69
2021/03/04 04:36:59;;;;;;;18.52;11.38;;;;;;;2.42;77.85;97223.22;5057441;28;20056;-70
2021/03/04 04:39:25;;;;;;;23.48;13.25;;;;;;;2.17;79.10;97224.06;5038336;28;20051;-70
2021/03/04 04:41:51;;;;;;;19.65;12.45;;;;;;;1.94;79.91;97225.56;5047957;28;20071;-71
2021/03/04 04:44:17;;;;;;;25.05;13.73;;;;;;;1.82;81.17;97224.66;5058166;28;20079;-70
2021/03/04 04:46:43;;;;;;;22.95;13.18;;;;;;;1.72;81.00;97223.59;5057408;28;20079;-71
2021/03/04 04:49:09;;;;;;;23.70;14.82;;;;;;;2.02;79.80;97219.94;5062202;28;20049;-69
2021/03/04 04:51:35;;;;;;;22.48;12.27;;;;;;;1.83;80.67;97216.03;5059528;28;20064;-70
2021/03/04 04:54:02;;;;;;;22.33;13.90;;;;;;;2.07;79.97;97211.94;5058864;28;20052;-70
2021/03/04 04:56:28;;;;;;;22.42;13.48;;;;;;;1.90;80.43;97213.88;5060419;28;20053;-70
2021/03/04 04:58:55;;;;;;;21.02;12.20;;;;;;;1.97;80.65;97216.88;5059303;28;20102;-70
2021/03/04 05:01:21;;;;;;;16.73;10.70;;;;;;;2.00;77.87;97196.94;5063073;28;20111;-70
2021/03/04 05:03:47;;;;;;;18.77;10.85;;;;;;;2.01;78.12;97208.88;5060722;28;20469;-69
2021/03/04 05:06:13;;;;;;;14.32;7.05;;;;;;;2.57;72.68;97190.50;5041357;28;21487;-70
2021/03/04 05:08:40;;;;;;;15.55;9.98;;;;;;;2.77;74.75;97190.88;5058248;28;20052;-71
2021/03/04 05:11:06;;;;;;;11.93;8.27;;;;;;;2.89;71.81;97194.34;5041385;28;20052;-70
2021/03/04 05:13:32;;;;;;;19.05;9.68;;;;;;;2.69;75.66;97188.00;5048470;28;20045;-70
2021/03/04 05:15:58;;;;;;;13.00;8.15;;;;;;;2.69;74.13;97194.00;5060604;28;20059;-70
2021/03/04 05:18:24;;;;;;;12.38;7.60;;;;;;;3.00;70.62;97191.84;5057761;28;20049;-70
2021/03/04 05:20:51;;;;;;;14.13;6.40;;;;;;;3.29;67.59;97194.91;5057972;28;20053;-70
2021/03/04 05:23:17;;;;;;;12.13;6.70;;;;;;;3.18;68.08;97187.16;5058333;28;20115;-70
2021/03/04 05:25:43;;;;;;;10.70;6.30;;;;;;;3.37;66.78;97184.88;5043309;28;20389;-69
2021/03/04 05:28:09;;;;;;;10.00;5.53;;;;;;;3.44;66.29;97170.63;5059043;28;20040;-70
2021/03/04 05:30:35;;;;;;;13.90;6.13;;;;;;;3.43;66.33;97169.00;5060590;28;20044;-69
2021/03/04 05:33:02;;;;;;;13.07;5.93;;;;;;;3.42;66.73;97177.66;5054256;28;20065;-71
2021/03/04 05:35:28;;;;;;;14.85;5.90;;;;;;;3.51;66.48;97170.19;5059112;28;20044;-70
2021/03/04 05:37:54;;;;;;;10.93;6.65;;;;;;;3.37;66.69;97172.03;5059083;28;21368;-70
2021/03/04 05:40:21;;;;;;;12.18;6.35;;;;;;;3.37;66.53;97164.31;5041841;28;20063;-71
2021/03/04 05:42:48;;;;;;;10.18;6.70;;;;;;;3.47;66.44;97167.00;5059886;28;20040;-70
2021/03/04 05:45:18;;;;;;;10.60;6.03;;;;;;;3.49;65.87;97164.34;5040561;28;20062;-71
2021/03/04 05:47:51;;;;;;;12.88;5.88;;;;;;;3.61;65.03;97171.97;5042703;28;20155;-69
2021/03/04 05:50:19;;;;;;;12.63;6.50;;;;;;;3.60;65.57;97174.69;5058502;28;20037;-69
2021/03/04 05:52:54;;;;;;;13.23;5.97;;;;;;;3.69;64.54;97179.16;5041881;28;20036;-69
2021/03/04 05:55:21;;;;;;;10.80;5.90;;;;;;;3.64;64.54;97168.34;5040454;28;20407;-70
2021/03/04 05:57:50;;;;;;;9.65;5.72;;;;;;;3.62;64.66;97172.78;5056544;28;20052;-70
2021/03/04 06:00:17;;;;;;;11.10;5.50;;;;;;;3.70;63.62;97165.31;5062726;28;20047;-71
2021/03/04 06:02:45;;;;;;;12.18;6.03;;;;;;;3.76;63.66;97164.88;5043811;28;21301;-71
2021/03/04 06:05:13;;;;;;;12.45;5.95;;;;;;;3.81;62.67;97167.94;5058441;28;20037;-71
2021/03/04 06:07:44;;;;;;;10.68;6.20;;;;;;;3.86;62.40;97152.13;5058001;28;20040;-69
2021/03/04 06:10:12;;;;;;;11.90;5.80;;;;;;;3.93;61.71;97149.91;5055145;28;20044;-68
2021/03/04 06:12:38;;;;;;;11.57;5.70;;;;;;;4.06;61.20;97150.63;5059862;28;20025;-69
2021/03/04 06:15:09;;;;;;;11.02;6.00;;;;;;;4.03;61.29;97153.44;5035266;28;20055;-69
2021/03/04 06:17:36;;;;;;;11.20;5.60;;;;;;;4.03;62.14;97156.84;5021619;28;20049;-68
2021/03/04 06:20:07;;;;;;;10.02;5.50;;;;;;;4.05;61.60;97154.97;5053759;28;20043;-67
2021/03/04 06:22:35;;;;;;;12.23;5.50;;;;;;;4.05;61.61;97159.31;5051557;28;21104;-68
2021/03/04 06:25:06;;;;;;;8.93;4.90;;;;;;;4.01;62.06;97152.75;5021003;28;20456;-67
2021/03/04 06:27:35;;;;;;;13.27;4.90;;;;;;;4.02;62.10;97167.25;5038531;28;20059;-68
2021/03/04 06:30:06;;;;;;;9.88;5.80;;;;;;;3.97;61.77;97172.75;5056629;28;20340;-68
2021/03/04 06:32:32;;;;;;;14.13;6.85;;;;;;;3.95;61.77;97169.47;5034707;28;20040;-68
2021/03/04 06:35:07;;;;;;;18.70;11.43;;;;;;;4.01;62.38;97175.94;5054260;28;20576;-69
2021/03/04 06:37:36;;;;;;;12.27;6.63;;;;;;;4.06;62.11;97166.94;5053618;28;20052;-67
2021/03/04 06:40:04;;;;;;;12.90;6.07;;;;;;;4.11;61.85;97161.41;5040841;28;20053;-70
2021/03/04 06:42:41;;;;;;;8.38;5.28;;;;;;;4.16;61.84;97159.31;5037694;28;20044;-70
2021/03/04 06:45:20;;;;;;;10.68;4.75;;;;;;;4.21;61.45;97154.63;5035866;28;20044;-71
2021/03/04 06:47:46;;;;;;;8.05;4.82;;;;;;;4.19;61.55;97155.66;5057565;28;20041;-69
2021/03/04 06:50:23;;;;;;;10.23;4.38;;;;;;;4.29;60.86;97165.16;5042379;28;20064;-68
2021/03/04 06:52:50;;;;;;;6.57;4.43;;;;;;;4.33;60.18;97157.22;5058409;28;20694;-64
2021/03/04 06:55:16;;;;;;;11.45;4.60;;;;;;;4.34;60.69;97158.84;5055528;28;20044;-65
2021/03/04 06:57:58;;;;;;;7.40;4.53;;;;;;;4.41;60.55;97154.88;5060629;28;20040;-69
2021/03/04 07:00:24;;;;;;;8.95;4.82;;;;;;;4.49;59.71;97147.38;5055375;28;20056;-69
2021/03/04 07:02:52;;;;;;;11.30;5.03;;;;;;;4.45;59.85;97139.03;5059904;28;20049;-69
2021/03/04 07:05:18;;;;;;;15.40;4.40;;;;;;;4.54;59.69;97150.41;5038262;28;20466;-70
2021/03/04 07:07:50;;;;;;;5.97;4.28;;;;;;;4.55;59.72;97154.63;5058623;28;20693;-69
2021/03/04 07:10:18;;;;;;;7.93;4.60;;;;;;;4.56;59.69;97158.84;5059775;28;20052;-69
2021/03/04 07:12:45;;;;;;;;;;;;;;;4.62;59.49;97157.53;5059437;28;20037;-69
2021/03/04 07:15:13;;;;;;;6.93;4.10;;;;;;;4.78;59.66;97167.47;5054609;28;19928;-69
2021/03/04 07:17:41;;;;;;;11.48;4.70;;;;;;;4.89;59.22;97159.72;5038108;28;20378;-69
2021/03/04 07:20:12;;;;;;;7.60;4.25;;;;;;;4.80;60.99;97170.75;5040094;28;20155;-68
2021/03/04 07:22:58;;;;;;;9.15;4.10;;;;;;;4.95;60.79;97174.69;5040931;28;20405;-69
2021/03/04 07:25:25;;;;;;;10.82;4.30;;;;;;;4.95;58.79;97164.38;5027965;28;20087;-69
2021/03/04 07:27:51;;;;;;;9.38;4.97;;;;;;;4.85;61.57;97166.06;5063413;28;20048;-69
2021/03/04 07:30:18;;;;;;;13.07;4.60;;;;;;;5.19;62.56;97156.47;5059726;28;20045;-69
2021/03/04 07:32:44;;;;;;;12.47;4.83;;;;;;;5.22;61.61;97163.13;5057079;28;20384;-70
2021/03/04 07:35:13;;;;;;;10.07;4.80;;;;;;;5.38;59.55;97158.38;5058799;28;20792;-70
2021/03/04 07:37:43;;;;;;;14.55;4.55;;;;;;;5.34;59.81;97163.94;5058038;28;20037;-70
2021/03/04 07:40:12;;;;;;;11.63;4.75;;;;;;;5.39;59.28;97154.03;5055969;28;20056;-70
2021/03/04 07:42:38;;;;;;;8.68;4.68;;;;;;;5.56;57.66;97157.81;5057794;28;20115;-70
2021/03/04 07:45:13;;;;;;;9.13;4.65;;;;;;;5.38;58.03;97150.63;5041528;28;20052;-70
2021/03/04 07:47:40;;;;;;;8.27;4.43;;;;;;;5.65;57.19;97151.91;5053917;28;20403;-70
2021/03/04 07:50:20;;;;;;;7.67;4.07;;;;;;;5.66;56.79;97150.97;5056413;28;20055;-70
2021/03/04 07:52:46;;;;;;;11.88;4.18;;;;;;;5.82;56.40;97138.44;5035649;28;20037;-70
2021/03/04 07:55:16;;;;;;;15.95;4.32;;;;;;;5.95;55.23;97125.34;5043874;28;20045;-70
2021/03/04 07:57:46;;;;;;;11.48;4.00;;;;;;;5.75;54.89;97157.94;5053236;28;20051;-70
2021/03/04 08:00:14;;;;;;;6.07;3.80;;;;;;;5.87;55.06;97148.38;5057143;28;20053;-70
2021/03/04 08:02:44;;;;;;;7.80;5.18;;;;;;;5.80;55.09;97145.50;5052058;28;20260;-70
2021/03/04 08:05:12;;;;;;;11.93;4.20;;;;;;;6.18;54.57;97146.69;5036531;28;20044;-70
2021/03/04 08:07:45;;;;;;;7.18;4.05;;;;;;;6.05;54.44;97144.31;5039123;28;20041;-69
2021/03/04 08:10:13;;;;;;;7.22;3.60;;;;;;;6.10;54.24;97133.56;5053038;28;20079;-70
2021/03/04 08:13:06;;;;;;;8.07;3.67;;;;;;;6.19;54.70;97139.72;5040535;28;20037;-70
2021/03/04 08:15:43;;;;;;;20.27;3.58;;;;;;;6.13;54.03;97141.06;5052832;28;20048;-70
2021/03/04 08:18:21;;;;;;;10.95;4.43;;;;;;;5.97;54.29;97128.63;5053071;28;20040;-70
2021/03/04 08:20:48;;;;;;;9.23;4.82;;;;;;;6.00;53.96;97130.94;5057865;28;20045;-70
2021/03/04 08:23:15;;;;;;;14.00;6.13;;;;;;;6.13;54.30;97133.31;5056586;28;20040;-70
2021/03/04 08:25:42;;;;;;;11.98;4.68;;;;;;;6.13;53.92;97122.16;5058977;28;20049;-70
2021/03/04 08:28:09;;;;;;;9.38;4.45;;;;;;;6.32;53.43;97110.09;5037720;28;20137;-70
2021/03/04 08:30:38;;;;;;;6.45;3.78;;;;;;;6.29;52.80;97112.16;5055531;28;20428;-69
2021/03/04 08:33:07;;;;;;;8.43;3.58;;;;;;;6.44;52.13;97110.84;5035471;28;20040;-70
2021/03/04 08:35:40;;;;;;;9.13;3.90;;;;;;;6.45;52.41;97109.06;5053820;28;20056;-70
2021/03/04 08:38:08;;;;;;;10.02;4.22;;;;;;;6.73;51.93;97100.56;5059072;28;20747;-70
2021/03/04 08:40:51;;;;;;;6.60;4.20;;;;;;;6.60;51.43;97099.97;5060749;28;20056;-70
2021/03/04 08:43:21;;;;;;;8.25;4.72;;;;;;;7.04;51.26;97100.44;5057736;28;20574;-70
2021/03/04 08:45:53;;;;;;;7.15;3.67;;;;;;;6.84;52.20;97093.63;5056555;28;20041;-70
2021/03/04 08:48:21;;;;;;;7.68;3.90;;;;;;;6.64;52.42;97090.19;5059324;28;20048;-70
2021/03/04 08:50:49;;;;;;;9.43;3.88;;;;;;;6.89;52.56;97083.69;5058692;28;20051;-70
2021/03/04 08:53:19;;;;;;;6.45;3.55;;;;;;;6.91;52.74;97085.19;5058374;28;20037;-70
2021/03/04 08:55:50;;;;;;;7.35;4.22;;;;;;;7.10;52.08;97086.97;5059403;28;20044;-69
2021/03/04 08:58:17;;;;;;;14.25;5.30;;;;;;;7.01;51.99;97080.00;5061635;28;20472;-70
2021/03/04 09:01:01;;;;;;;12.05;4.57;;;;;;;6.91;52.46;97074.81;5062228;28;20135;-70
2021/03/04 09:03:33;;;;;;;11.82;4.25;;;;;;;6.68;52.78;97063.91;5057589;28;20036;-70
2021/03/04 09:06:04;;;;;;;9.63;4.30;;;;;;;6.88;52.79;97075.09;5033693;28;20555;-70
2021/03/04 09:08:48;;;;;;;7.15;4.30;;;;;;;7.18;52.48;97054.41;5059414;28;20041;-70
2021/03/04 09:11:35;;;;;;;6.47;3.85;;;;;;;7.29;52.35;97051.66;5045134;28;20044;-70
2021/03/04 09:14:06;;;;;;;8.90;3.88;;;;;;;7.14;51.73;97048.69;5061326;28;20046;-70
2021/03/04 09:16:46;;;;;;;13.57;4.32;;;;;;;7.12;51.03;97069.50;5059236;28;20143;-70
2021/03/04 09:19:23;;;;;;;10.15;3.80;;;;;;;7.97;50.13;97045.47;5057916;28;20047;-70
2021/03/04 09:21:50;;;;;;;9.80;4.22;;;;;;;7.95;49.43;97036.03;5058778;28;20072;-70
2021/03/04 09:24:32;;;;;;;8.63;3.85;;;;;;;8.62;48.24;97048.84;5057352;28;20042;-70
2021/03/04 09:27:08;;;;;;;6.35;3.70;;;;;;;8.98;47.33;97048.03;5039698;28;20057;-70
2021/03/04 09:29:39;;;;;;;12.32;3.90;;;;;;;9.27;46.22;97039.97;5061087;28;20038;-70
2021/03/04 09:32:05;;;;;;;6.07;3.40;;;;;;;8.70;47.12;97030.75;5057818;28;20468;-70
2021/03/04 09:34:38;;;;;;;8.32;4.60;;;;;;;8.43;46.51;97031.63;5044354;28;20064;-70
2021/03/04 09:37:15;;;;;;;16.92;4.50;;;;;;;9.39;45.51;97028.38;5043841;28;20040;-70
2021/03/04 09:39:47;;;;;;;10.27;4.07;;;;;;;9.46;44.90;97032.00;5055167;28;20044;-70
2021/03/04 09:42:32;;;;;;;10.18;4.38;;;;;;;9.34;45.24;97028.84;5060029;28;20037;-70
2021/03/04 09:45:04;;;;;;;6.95;4.20;;;;;;;9.44;44.94;97015.75;5060158;28;20124;-70
2021/03/04 09:47:32;;;;;;;5.80;3.42;;;;;;;9.50;44.01;97014.31;5044705;28;20480;-70
2021/03/04 09:50:00;;;;;;;4.82;3.50;;;;;;;9.43;43.50;97026.31;5060391;28;20064;-70
2021/03/04 09:52:27;;;;;;;;;;;;;;;9.29;43.69;97015.50;5060664;28;20043;-70
2021/03/04 09:55:23;;;;;;;6.60;4.40;;;;;;;9.56;43.53;97006.72;5063025;28;20488;-70
2021/03/04 09:57:50;;;;;;;7.05;3.83;;;;;;;9.80;42.83;96994.84;5043841;28;20036;-70
2021/03/04 10:00:18;;;;;;;4.38;3.58;;;;;;;10.35;41.88;96994.41;5039569;28;20076;-71
2021/03/04 10:02:46;;;;;;;9.98;3.95;;;;;;;10.41;42.47;96994.75;5039868;28;20130;-70
2021/03/04 10:05:16;;;;;;;7.57;3.42;;;;;;;10.30;42.71;96995.84;5061885;28;20408;-70
2021/03/04 10:07:44;;;;;;;7.43;3.90;;;;;;;10.65;42.02;96994.78;5055241;28;20044;-70
2021/03/04 10:10:19;;;;;;;11.20;3.53;;;;;;;9.85;43.16;96971.78;5059716;28;20123;-70
2021/03/04 10:12:50;;;;;;;7.22;3.80;;;;;;;10.11;42.71;96973.50;5061735;28;20048;-70
2021/03/04 10:15:38;;;;;;;8.65;3.58;;;;;;;10.50;42.14;96976.38;5061934;28;20041;-69
2021/03/04 10:18:12;;;;;;;7.70;3.63;;;;;;;9.88;42.32;96974.06;5028369;28;20055;-69
2021/03/04 10:20:45;;;;;;;6.50;3.30;;;;;;;10.29;42.80;96958.63;5039705;28;20054;-69
2021/03/04 10:23:16;;;;;;;9.63;3.33;;;;;;;10.25;42.60;96957.28;5038590;28;20064;-69
2021/03/04 10:25:44;;;;;;;7.50;3.53;;;;;;;10.21;42.52;96961.16;5056311;28;20045;-69
2021/03/04 10:28:10;;;;;;;10.25;4.15;;;;;;;10.47;42.69;96960.28;5054371;28;20424;-69
2021/03/04 10:30:38;;;;;;;7.53;4.03;;;;;;;10.02;42.73;96948.44;5044654;28;20056;-69
2021/03/04 10:33:05;;;;;;;7.28;3.97;;;;;;;10.04;42.68;96959.50;5048619;28;20044;-69
2021/03/04 10:35:35;;;;;;;6.72;3.78;;;;;;;10.13;42.21;96956.75;5061064;28;20106;-69
2021/03/04 10:38:02;;;;;;;6.30;3.63;;;;;;;10.09;42.22;96945.03;5047661;28;20135;-69
2021/03/04 10:40:28;;;;;;;9.98;3.97;;;;;;;10.85;41.11;96950.22;5065782;28;20056;-69
2021/03/04 10:42:55;;;;;;;9.30;3.90;;;;;;;11.32;40.28;96944.28;5031666;28;20802;-69
2021/03/04 10:45:25;;;;;;;8.50;3.60;;;;;;;10.68;40.71;96941.56;5059977;28;20053;-69
2021/03/04 10:47:51;;;;;;;7.93;4.70;;;;;;;10.66;41.38;96941.72;5047925;28;20076;-69
2021/03/04 10:50:20;;;;;;;10.13;3.90;;;;;;;10.33;41.56;96944.31;5062271;28;20360;-69
2021/03/04 10:52:47;;;;;;;7.63;4.10;;;;;;;10.00;42.95;96948.59;5059515;28;20510;-69
2021/03/04 10:55:27;;;;;;;10.65;4.30;;;;;;;9.88;43.42;96937.66;5061099;28;20048;-69
2021/03/04 10:57:54;;;;;;;12.30;4.70;;;;;;;9.87;43.43;96943.03;5059636;28;20463;-71
2021/03/04 11:00:23;;;;;;;8.55;5.03;;;;;;;9.77;43.50;96930.13;5063435;28;20055;-70
2021/03/04 11:02:50;;;;;;;11.43;4.97;;;;;;;10.33;43.61;96928.69;5042043;28;20080;-70
2021/03/04 11:05:17;;;;;;;8.68;4.90;;;;;;;10.03;43.32;96927.44;5042857;28;20106;-69
2021/03/04 11:07:45;;;;;;;10.70;4.88;;;;;;;10.23;42.54;96920.19;5059032;28;20090;-69
2021/03/04 11:10:16;;;;;;;9.02;4.50;;;;;;;10.21;42.39;96919.53;5040721;28;20546;-69
2021/03/04 11:12:48;;;;;;;7.75;4.35;;;;;;;11.02;42.00;96912.75;5059808;28;20416;-70
2021/03/04 11:15:15;;;;;;;8.23;4.95;;;;;;;11.34;41.56;96911.84;5060331;28;20120;-69
2021/03/04 11:17:41;;;;;;;8.23;5.33;;;;;;;11.69;40.55;96904.56;5061858;28;20051;-69
2021/03/04 11:20:08;;;;;;;9.60;4.80;;;;;;;11.57;41.02;96904.13;5062212;28;20049;-70
2021/03/04 11:22:35;;;;;;;9.52;5.05;;;;;;;11.14;41.43;96893.19;5044580;28;20041;-69
2021/03/04 11:25:02;;;;;;;10.02;4.53;;;;;;;11.28;41.14;96896.91;5043143;28;20048;-69
2021/03/04 11:27:29;;;;;;;10.13;6.03;;;;;;;11.13;42.33;96888.97;5059752;28;20136;-69
2021/03/04 11:29:55;;;;;;;10.10;4.68;;;;;;;11.16;41.71;96877.41;5063852;28;20564;-68
2021/03/04 11:32:26;;;;;;;18.77;4.85;;;;;;;11.56;41.28;96873.84;5047433;28;20072;-70
2021/03/04 11:34:54;;;;;;;8.77;5.05;;;;;;;11.60;40.63;96872.50;5042172;28;20143;-69
2021/03/04 11:37:20;;;;;;;8.05;5.30;;;;;;;11.37;41.84;96874.25;5049140;28;20064;-69
2021/03/04 11:39:47;;;;;;;14.50;5.15;;;;;;;11.55;41.64;96868.78;5037799;28;20136;-69
2021/03/04 11:42:13;;;;;;;16.73;5.53;;;;;;;11.31;42.63;96854.88;5033783;28;20040;-69
2021/03/04 11:44:39;;;;;;;11.77;5.60;;;;;;;11.10;42.84;96847.59;5061210;28;20048;-69